Skip Navigation Links Skip Navigation Links

Current Weather

Cambridge Bay Apt, Cambridge Bay, N.T.

For information only: do not use for flight planning or navigation.
Latest weather
Observation time Sunday, January 21, 2018 1:00 PM MST
Local time Sunday, January 21, 2018 1:39 PM MST
Flight conditions Visual Meteorological Conditions
Winds
Wind direction East-Northeast (60°)
Wind speed 8 mph
Visibility 15 mi.
Present weather ice crystals
Sky condition
Ceiling unlimited
Cloud layer few clouds 300 ft.
Temperature -33°F
Dewpoint -38°F
Altimeter 30.31 in.Hg
Derived measurements
Relative humidity 74%
Wind chill -54°F
Density altitude -7162 ft.
Sea-level pressure 30.34 in.Hg
METAR CYCB 212000Z 06007KT 15SM IC FEW003 M36/M39 A3031 RMK SF1 SF TR HALO SLP274

Settings

Location code

InnerDrive.Weather 4.0.6144.1 Release CLR 4.0.30319.36366
Copyright ©2015 Inner Drive Technology. All rights reserved. Portions Copyright ©1986-2015 David Braverman.

Find weather

Site navigation


Skip Navigation Links

Place info

Page info

PayPal - The safer, easier way to pay online!

Return home.

Copyright ©2018 Inner Drive Technology. Purveyors of fine, hand-crafted computer software. Page printed 2018-01-21T20:39:53 UTC.